sensor_id;sensor_type;location;lat;lon;timestamp;temperature;humidity
29777;DHT22;16677;52.224;7.484;2023-08-01T00:00:40;16.60;99.90
29777;DHT22;16677;52.224;7.484;2023-08-01T00:03:07;16.60;99.90
29777;DHT22;16677;52.224;7.484;2023-08-01T00:05:34;16.70;99.90
29777;DHT22;16677;52.224;7.484;2023-08-01T00:08:01;16.60;99.90
29777;DHT22;16677;52.224;7.484;2023-08-01T00:10:29;16.60;99.90
29777;DHT22;16677;52.224;7.484;2023-08-01T00:12:56;16.60;99.90
29777;DHT22;16677;52.224;7.484;2023-08-01T00:15:23;16.60;99.90
29777;DHT22;16677;52.224;7.484;2023-08-01T00:17:50;16.60;99.90
29777;DHT22;16677;52.224;7.484;2023-08-01T00:20:17;16.60;99.90
29777;DHT22;16677;52.224;7.484;2023-08-01T00:22:44;16.70;99.90
29777;DHT22;16677;52.224;7.484;2023-08-01T00:25:12;16.70;99.90
29777;DHT22;16677;52.224;7.484;2023-08-01T00:27:40;16.60;99.90
29777;DHT22;16677;52.224;7.484;2023-08-01T00:30:08;16.70;99.90
29777;DHT22;16677;52.224;7.484;2023-08-01T00:32:36;16.80;99.90
29777;DHT22;16677;52.224;7.484;2023-08-01T00:35:04;16.80;99.90
29777;DHT22;16677;52.224;7.484;2023-08-01T00:37:32;16.80;99.90
29777;DHT22;16677;52.224;7.484;2023-08-01T00:39:59;16.70;99.90
29777;DHT22;16677;52.224;7.484;2023-08-01T00:42:26;16.70;99.90
29777;DHT22;16677;52.224;7.484;2023-08-01T00:44:54;16.70;99.90
29777;DHT22;16677;52.224;7.484;2023-08-01T00:47:21;16.70;99.90
29777;DHT22;16677;52.224;7.484;2023-08-01T00:49:49;16.70;99.90
29777;DHT22;16677;52.224;7.484;2023-08-01T00:52:17;16.80;99.90
29777;DHT22;16677;52.224;7.484;2023-08-01T00:54:44;16.80;99.90
29777;DHT22;16677;52.224;7.484;2023-08-01T00:57:11;16.70;99.90
29777;DHT22;16677;52.224;7.484;2023-08-01T00:59:41;16.80;99.90
29777;DHT22;16677;52.224;7.484;2023-08-01T01:02:08;16.90;99.90
29777;DHT22;16677;52.224;7.484;2023-08-01T01:04:35;16.90;99.90
29777;DHT22;16677;52.224;7.484;2023-08-01T01:07:06;16.80;99.90
29777;DHT22;16677;52.224;7.484;2023-08-01T01:09:34;16.80;99.90
29777;DHT22;16677;52.224;7.484;2023-08-01T01:12:01;16.80;99.90
29777;DHT22;16677;52.224;7.484;2023-08-01T01:14:28;16.90;99.90
29777;DHT22;16677;52.224;7.484;2023-08-01T01:16:56;16.80;99.90
29777;DHT22;16677;52.224;7.484;2023-08-01T01:19:23;16.70;99.90
29777;DHT22;16677;52.224;7.484;2023-08-01T01:22:18;16.90;99.90
29777;DHT22;16677;52.224;7.484;2023-08-01T01:24:46;16.90;99.90
29777;DHT22;16677;52.224;7.484;2023-08-01T01:27:16;16.80;99.90
29777;DHT22;16677;52.224;7.484;2023-08-01T01:29:47;16.90;99.90
29777;DHT22;16677;52.224;7.484;2023-08-01T01:32:15;16.80;99.90
29777;DHT22;16677;52.224;7.484;2023-08-01T01:34:44;16.90;99.90
29777;DHT22;16677;52.224;7.484;2023-08-01T01:37:12;16.90;99.90
29777;DHT22;16677;52.224;7.484;2023-08-01T01:39:40;16.80;99.90
29777;DHT22;16677;52.224;7.484;2023-08-01T01:42:07;16.90;99.90
29777;DHT22;16677;52.224;7.484;2023-08-01T01:44:34;16.80;99.90
29777;DHT22;16677;52.224;7.484;2023-08-01T01:47:02;16.80;99.90
29777;DHT22;16677;52.224;7.484;2023-08-01T01:49:29;16.80;99.90
29777;DHT22;16677;52.224;7.484;2023-08-01T01:51:56;16.80;99.90
29777;DHT22;16677;52.224;7.484;2023-08-01T01:54:26;16.80;99.90
29777;DHT22;16677;52.224;7.484;2023-08-01T01:56:53;16.70;99.90
29777;DHT22;16677;52.224;7.484;2023-08-01T01:59:20;16.70;99.90
29777;DHT22;16677;52.224;7.484;2023-08-01T02:01:47;16.70;99.90
29777;DHT22;16677;52.224;7.484;2023-08-01T02:04:14;16.80;99.90
29777;DHT22;16677;52.224;7.484;2023-08-01T02:06:42;16.70;99.90
29777;DHT22;16677;52.224;7.484;2023-08-01T02:09:09;16.60;99.90
29777;DHT22;16677;52.224;7.484;2023-08-01T02:11:36;16.60;99.90
29777;DHT22;16677;52.224;7.484;2023-08-01T02:14:03;16.60;99.90
29777;DHT22;16677;52.224;7.484;2023-08-01T02:16:30;16.80;99.90
29777;DHT22;16677;52.224;7.484;2023-08-01T02:18:57;16.60;99.90
29777;DHT22;16677;52.224;7.484;2023-08-01T02:21:28;16.70;99.90
29777;DHT22;16677;52.224;7.484;2023-08-01T02:23:55;16.70;99.90
29777;DHT22;16677;52.224;7.484;2023-08-01T02:26:22;16.70;99.90
29777;DHT22;16677;52.224;7.484;2023-08-01T02:28:50;16.60;99.90
29777;DHT22;16677;52.224;7.484;2023-08-01T02:31:19;16.50;99.90
29777;DHT22;16677;52.224;7.484;2023-08-01T02:33:46;16.50;99.90
29777;DHT22;16677;52.224;7.484;2023-08-01T02:36:15;16.50;99.90
29777;DHT22;16677;52.224;7.484;2023-08-01T02:38:42;16.60;99.90
29777;DHT22;16677;52.224;7.484;2023-08-01T02:41:09;16.60;99.90
29777;DHT22;16677;52.224;7.484;2023-08-01T02:43:36;16.50;99.90
29777;DHT22;16677;52.224;7.484;2023-08-01T02:46:03;16.50;99.90
29777;DHT22;16677;52.224;7.484;2023-08-01T02:48:32;16.40;99.90
29777;DHT22;16677;52.224;7.484;2023-08-01T02:50:59;16.50;99.90
29777;DHT22;16677;52.224;7.484;2023-08-01T02:53:26;16.50;99.90
29777;DHT22;16677;52.224;7.484;2023-08-01T02:55:53;16.50;99.90
29777;DHT22;16677;52.224;7.484;2023-08-01T02:58:21;16.60;99.90
29777;DHT22;16677;52.224;7.484;2023-08-01T03:00:48;16.70;99.90
29777;DHT22;16677;52.224;7.484;2023-08-01T03:03:15;16.70;99.90
29777;DHT22;16677;52.224;7.484;2023-08-01T03:05:43;16.60;99.90
29777;DHT22;16677;52.224;7.484;2023-08-01T03:08:10;16.60;99.90
29777;DHT22;16677;52.224;7.484;2023-08-01T03:10:37;16.60;99.90
29777;DHT22;16677;52.224;7.484;2023-08-01T03:13:04;16.60;99.90
29777;DHT22;16677;52.224;7.484;2023-08-01T03:15:32;16.60;99.90
29777;DHT22;16677;52.224;7.484;2023-08-01T03:17:59;16.80;99.90
29777;DHT22;16677;52.224;7.484;2023-08-01T03:20:26;16.70;99.90
29777;DHT22;16677;52.224;7.484;2023-08-01T03:22:54;16.70;99.90
29777;DHT22;16677;52.224;7.484;2023-08-01T03:25:21;16.70;99.90
29777;DHT22;16677;52.224;7.484;2023-08-01T03:27:48;16.50;99.90
29777;DHT22;16677;52.224;7.484;2023-08-01T03:30:15;16.50;99.90
29777;DHT22;16677;52.224;7.484;2023-08-01T03:32:42;16.50;99.90
29777;DHT22;16677;52.224;7.484;2023-08-01T03:35:10;16.50;99.90
29777;DHT22;16677;52.224;7.484;2023-08-01T03:37:37;16.40;99.90
29777;DHT22;16677;52.224;7.484;2023-08-01T03:40:05;16.50;99.90
29777;DHT22;16677;52.224;7.484;2023-08-01T03:42:36;16.50;99.90
29777;DHT22;16677;52.224;7.484;2023-08-01T03:45:04;16.50;99.90
29777;DHT22;16677;52.224;7.484;2023-08-01T03:47:32;16.50;99.90
29777;DHT22;16677;52.224;7.484;2023-08-01T03:50:00;16.50;99.90
29777;DHT22;16677;52.224;7.484;2023-08-01T03:52:27;16.50;99.90
29777;DHT22;16677;52.224;7.484;2023-08-01T03:54:55;16.50;99.90
29777;DHT22;16677;52.224;7.484;2023-08-01T03:57:23;16.40;99.90
29777;DHT22;16677;52.224;7.484;2023-08-01T03:59:50;16.30;99.90
29777;DHT22;16677;52.224;7.484;2023-08-01T04:02:17;16.30;99.90
29777;DHT22;16677;52.224;7.484;2023-08-01T04:04:45;16.40;99.90
29777;DHT22;16677;52.224;7.484;2023-08-01T04:07:12;16.30;99.90
29777;DHT22;16677;52.224;7.484;2023-08-01T04:09:40;16.20;99.90
29777;DHT22;16677;52.224;7.484;2023-08-01T04:12:07;16.30;99.90
29777;DHT22;16677;52.224;7.484;2023-08-01T04:14:34;16.30;99.90
29777;DHT22;16677;52.224;7.484;2023-08-01T04:17:02;16.20;99.90
29777;DHT22;16677;52.224;7.484;2023-08-01T04:19:29;16.10;99.90
29777;DHT22;16677;52.224;7.484;2023-08-01T04:21:56;16.20;99.90
29777;DHT22;16677;52.224;7.484;2023-08-01T04:24:24;16.30;99.90
29777;DHT22;16677;52.224;7.484;2023-08-01T04:26:52;16.20;99.90
29777;DHT22;16677;52.224;7.484;2023-08-01T04:29:19;16.20;99.90
29777;DHT22;16677;52.224;7.484;2023-08-01T04:31:46;16.20;99.90
29777;DHT22;16677;52.224;7.484;2023-08-01T04:34:14;16.20;99.90
29777;DHT22;16677;52.224;7.484;2023-08-01T04:36:41;16.20;99.90
29777;DHT22;16677;52.224;7.484;2023-08-01T04:39:09;16.30;99.90
29777;DHT22;16677;52.224;7.484;2023-08-01T04:41:36;16.20;99.90
29777;DHT22;16677;52.224;7.484;2023-08-01T04:44:03;16.10;99.90
29777;DHT22;16677;52.224;7.484;2023-08-01T04:46:30;16.10;99.90
29777;DHT22;16677;52.224;7.484;2023-08-01T04:48:58;16.10;99.90
29777;DHT22;16677;52.224;7.484;2023-08-01T04:51:25;16.10;99.90
29777;DHT22;16677;52.224;7.484;2023-08-01T04:53:52;16.00;99.90
29777;DHT22;16677;52.224;7.484;2023-08-01T04:56:20;16.00;99.90
29777;DHT22;16677;52.224;7.484;2023-08-01T04:58:47;16.00;99.90
29777;DHT22;16677;52.224;7.484;2023-08-01T05:01:14;16.10;99.90
29777;DHT22;16677;52.224;7.484;2023-08-01T05:03:41;16.00;99.90
29777;DHT22;16677;52.224;7.484;2023-08-01T05:06:09;16.10;99.90
29777;DHT22;16677;52.224;7.484;2023-08-01T05:08:36;16.20;99.90
29777;DHT22;16677;52.224;7.484;2023-08-01T05:11:03;16.10;99.90
29777;DHT22;16677;52.224;7.484;2023-08-01T05:13:30;16.10;99.90
29777;DHT22;16677;52.224;7.484;2023-08-01T05:15:57;16.10;99.90
29777;DHT22;16677;52.224;7.484;2023-08-01T05:18:25;16.20;99.90
29777;DHT22;16677;52.224;7.484;2023-08-01T05:20:52;16.10;99.90
29777;DHT22;16677;52.224;7.484;2023-08-01T05:23:19;16.30;99.90
29777;DHT22;16677;52.224;7.484;2023-08-01T05:25:46;16.30;99.90
29777;DHT22;16677;52.224;7.484;2023-08-01T05:28:13;16.30;99.90
29777;DHT22;16677;52.224;7.484;2023-08-01T05:30:41;16.20;99.90
29777;DHT22;16677;52.224;7.484;2023-08-01T05:33:09;16.30;99.90
29777;DHT22;16677;52.224;7.484;2023-08-01T05:35:36;16.30;99.90
29777;DHT22;16677;52.224;7.484;2023-08-01T05:38:03;16.40;99.90
29777;DHT22;16677;52.224;7.484;2023-08-01T05:40:30;16.40;99.90
29777;DHT22;16677;52.224;7.484;2023-08-01T05:42:57;16.50;99.90
29777;DHT22;16677;52.224;7.484;2023-08-01T05:45:25;16.50;99.90
29777;DHT22;16677;52.224;7.484;2023-08-01T05:47:52;16.70;99.90
29777;DHT22;16677;52.224;7.484;2023-08-01T05:50:19;16.60;99.90
29777;DHT22;16677;52.224;7.484;2023-08-01T05:52:46;16.60;99.90
29777;DHT22;16677;52.224;7.484;2023-08-01T05:55:13;16.50;99.90
29777;DHT22;16677;52.224;7.484;2023-08-01T05:57:40;16.40;99.90
29777;DHT22;16677;52.224;7.484;2023-08-01T06:00:08;16.40;99.90
29777;DHT22;16677;52.224;7.484;2023-08-01T06:02:36;16.40;99.90
29777;DHT22;16677;52.224;7.484;2023-08-01T06:05:04;16.40;99.90
29777;DHT22;16677;52.224;7.484;2023-08-01T06:07:32;16.40;99.90
29777;DHT22;16677;52.224;7.484;2023-08-01T06:09:59;16.40;99.90
29777;DHT22;16677;52.224;7.484;2023-08-01T06:12:26;16.30;99.90
29777;DHT22;16677;52.224;7.484;2023-08-01T06:14:53;16.20;99.90
29777;DHT22;16677;52.224;7.484;2023-08-01T06:17:21;16.00;99.90
29777;DHT22;16677;52.224;7.484;2023-08-01T06:19:48;16.00;99.90
29777;DHT22;16677;52.224;7.484;2023-08-01T06:22:16;16.00;99.90
29777;DHT22;16677;52.224;7.484;2023-08-01T06:24:46;16.00;99.90
29777;DHT22;16677;52.224;7.484;2023-08-01T06:27:13;15.80;99.90
29777;DHT22;16677;52.224;7.484;2023-08-01T06:32:10;15.80;99.90
29777;DHT22;16677;52.224;7.484;2023-08-01T06:34:38;15.80;99.90
29777;DHT22;16677;52.224;7.484;2023-08-01T06:37:05;15.70;99.90
29777;DHT22;16677;52.224;7.484;2023-08-01T06:39:32;15.80;99.90
29777;DHT22;16677;52.224;7.484;2023-08-01T06:41:59;15.80;99.90
29777;DHT22;16677;52.224;7.484;2023-08-01T06:44:27;16.00;99.90
29777;DHT22;16677;52.224;7.484;2023-08-01T06:46:54;15.90;99.90
29777;DHT22;16677;52.224;7.484;2023-08-01T06:49:21;16.10;99.90
29777;DHT22;16677;52.224;7.484;2023-08-01T06:51:48;16.00;99.90
29777;DHT22;16677;52.224;7.484;2023-08-01T06:54:15;15.80;99.90
29777;DHT22;16677;52.224;7.484;2023-08-01T06:56:42;15.90;99.90
29777;DHT22;16677;52.224;7.484;2023-08-01T06:59:14;15.80;99.90
29777;DHT22;16677;52.224;7.484;2023-08-01T07:01:42;15.80;99.90
29777;DHT22;16677;52.224;7.484;2023-08-01T07:04:11;15.80;99.90
29777;DHT22;16677;52.224;7.484;2023-08-01T07:06:39;16.00;99.90
29777;DHT22;16677;52.224;7.484;2023-08-01T07:09:07;16.10;99.90
29777;DHT22;16677;52.224;7.484;2023-08-01T07:11:34;16.40;99.90
29777;DHT22;16677;52.224;7.484;2023-08-01T07:14:01;16.40;99.90
29777;DHT22;16677;52.224;7.484;2023-08-01T07:16:28;16.80;99.90
29777;DHT22;16677;52.224;7.484;2023-08-01T07:18:58;17.20;99.90
29777;DHT22;16677;52.224;7.484;2023-08-01T07:21:26;17.40;99.90
29777;DHT22;16677;52.224;7.484;2023-08-01T07:23:56;17.90;99.90
29777;DHT22;16677;52.224;7.484;2023-08-01T07:26:24;17.60;82.80
29777;DHT22;16677;52.224;7.484;2023-08-01T07:28:52;17.70;99.90
29777;DHT22;16677;52.224;7.484;2023-08-01T07:31:19;17.90;99.90
29777;DHT22;16677;52.224;7.484;2023-08-01T07:33:46;17.80;31.80
29777;DHT22;16677;52.224;7.484;2023-08-01T07:36:13;17.20;99.90
29777;DHT22;16677;52.224;7.484;2023-08-01T07:38:41;17.40;99.90
29777;DHT22;16677;52.224;7.484;2023-08-01T07:41:08;17.50;99.90
29777;DHT22;16677;52.224;7.484;2023-08-01T07:43:35;17.40;99.90
29777;DHT22;16677;52.224;7.484;2023-08-01T07:46:02;17.10;99.90
29777;DHT22;16677;52.224;7.484;2023-08-01T07:48:30;17.20;99.90
29777;DHT22;16677;52.224;7.484;2023-08-01T07:50:57;17.10;99.90
29777;DHT22;16677;52.224;7.484;2023-08-01T07:53:24;16.90;99.90
29777;DHT22;16677;52.224;7.484;2023-08-01T07:55:52;16.90;99.90
29777;DHT22;16677;52.224;7.484;2023-08-01T07:58:20;17.10;99.90
29777;DHT22;16677;52.224;7.484;2023-08-01T08:00:47;17.20;99.90
29777;DHT22;16677;52.224;7.484;2023-08-01T08:03:15;17.30;99.90
29777;DHT22;16677;52.224;7.484;2023-08-01T08:05:42;17.40;99.90
29777;DHT22;16677;52.224;7.484;2023-08-01T08:08:09;17.60;99.90
29777;DHT22;16677;52.224;7.484;2023-08-01T08:10:39;17.40;99.90
29777;DHT22;16677;52.224;7.484;2023-08-01T08:13:09;17.40;99.90
29777;DHT22;16677;52.224;7.484;2023-08-01T08:15:36;17.20;99.90
29777;DHT22;16677;52.224;7.484;2023-08-01T08:18:03;17.40;99.90
29777;DHT22;16677;52.224;7.484;2023-08-01T08:20:34;17.60;99.90
29777;DHT22;16677;52.224;7.484;2023-08-01T08:23:07;17.80;98.60
29777;DHT22;16677;52.224;7.484;2023-08-01T08:25:34;18.20;99.90
29777;DHT22;16677;52.224;7.484;2023-08-01T08:28:01;18.10;99.90
29777;DHT22;16677;52.224;7.484;2023-08-01T08:30:29;17.80;99.90
29777;DHT22;16677;52.224;7.484;2023-08-01T08:32:57;17.60;99.90
29777;DHT22;16677;52.224;7.484;2023-08-01T08:35:27;17.10;99.90
29777;DHT22;16677;52.224;7.484;2023-08-01T08:37:54;16.80;99.90
29777;DHT22;16677;52.224;7.484;2023-08-01T08:40:21;16.90;99.90
29777;DHT22;16677;52.224;7.484;2023-08-01T08:42:49;17.10;99.90
29777;DHT22;16677;52.224;7.484;2023-08-01T08:45:20;17.50;99.90
29777;DHT22;16677;52.224;7.484;2023-08-01T08:47:55;17.70;99.90
29777;DHT22;16677;52.224;7.484;2023-08-01T08:50:23;17.70;99.90
29777;DHT22;16677;52.224;7.484;2023-08-01T08:52:51;18.00;93.70
29777;DHT22;16677;52.224;7.484;2023-08-01T08:55:20;18.20;99.90
29777;DHT22;16677;52.224;7.484;2023-08-01T08:57:49;18.60;91.30
29777;DHT22;16677;52.224;7.484;2023-08-01T09:00:19;18.80;44.50
29777;DHT22;16677;52.224;7.484;2023-08-01T09:02:47;18.60;1.00
29777;DHT22;16677;52.224;7.484;2023-08-01T09:05:15;19.30;10.70
29777;DHT22;16677;52.224;7.484;2023-08-01T09:07:43;19.30;1.00
29777;DHT22;16677;52.224;7.484;2023-08-01T09:10:13;19.40;99.90
29777;DHT22;16677;52.224;7.484;2023-08-01T09:12:40;19.10;1.00
29777;DHT22;16677;52.224;7.484;2023-08-01T09:15:08;18.90;99.90
29777;DHT22;16677;52.224;7.484;2023-08-01T09:17:48;18.90;1.00
29777;DHT22;16677;52.224;7.484;2023-08-01T09:20:18;19.00;99.90
29777;DHT22;16677;52.224;7.484;2023-08-01T09:22:46;18.90;1.00
29777;DHT22;16677;52.224;7.484;2023-08-01T09:25:14;18.90;1.00
29777;DHT22;16677;52.224;7.484;2023-08-01T09:27:41;19.10;99.90
29777;DHT22;16677;52.224;7.484;2023-08-01T09:30:10;18.90;67.60
29777;DHT22;16677;52.224;7.484;2023-08-01T09:32:40;19.20;99.90
29777;DHT22;16677;52.224;7.484;2023-08-01T09:35:07;19.10;99.90
29777;DHT22;16677;52.224;7.484;2023-08-01T09:37:39;19.30;99.90
29777;DHT22;16677;52.224;7.484;2023-08-01T09:40:11;19.30;1.00
29777;DHT22;16677;52.224;7.484;2023-08-01T09:42:44;19.60;99.90
29777;DHT22;16677;52.224;7.484;2023-08-01T09:45:12;19.30;1.00
29777;DHT22;16677;52.224;7.484;2023-08-01T09:47:41;19.20;99.90
29777;DHT22;16677;52.224;7.484;2023-08-01T09:50:21;19.20;1.00
29777;DHT22;16677;52.224;7.484;2023-08-01T09:52:49;19.40;99.90
29777;DHT22;16677;52.224;7.484;2023-08-01T09:55:26;19.70;99.90
29777;DHT22;16677;52.224;7.484;2023-08-01T09:58:00;19.60;1.00
29777;DHT22;16677;52.224;7.484;2023-08-01T10:00:28;19.70;1.00
29777;DHT22;16677;52.224;7.484;2023-08-01T10:02:58;19.50;1.00
29777;DHT22;16677;52.224;7.484;2023-08-01T10:05:30;19.00;1.00
29777;DHT22;16677;52.224;7.484;2023-08-01T10:08:00;18.90;99.90
29777;DHT22;16677;52.224;7.484;2023-08-01T10:10:29;18.50;37.70
29777;DHT22;16677;52.224;7.484;2023-08-01T10:13:01;18.50;99.90
29777;DHT22;16677;52.224;7.484;2023-08-01T10:15:28;18.70;1.00
29777;DHT22;16677;52.224;7.484;2023-08-01T10:17:57;18.70;99.90
29777;DHT22;16677;52.224;7.484;2023-08-01T10:20:24;18.60;4.00
29777;DHT22;16677;52.224;7.484;2023-08-01T10:22:53;18.90;1.00
29777;DHT22;16677;52.224;7.484;2023-08-01T10:25:20;19.10;1.00
29777;DHT22;16677;52.224;7.484;2023-08-01T10:28:09;18.80;1.00
29777;DHT22;16677;52.224;7.484;2023-08-01T10:30:36;19.50;99.90
29777;DHT22;16677;52.224;7.484;2023-08-01T10:33:03;19.90;99.90
29777;DHT22;16677;52.224;7.484;2023-08-01T10:35:38;19.70;99.90
29777;DHT22;16677;52.224;7.484;2023-08-01T10:38:11;19.90;99.90
29777;DHT22;16677;52.224;7.484;2023-08-01T10:40:39;20.30;99.90
29777;DHT22;16677;52.224;7.484;2023-08-01T10:43:22;20.30;99.90
29777;DHT22;16677;52.224;7.484;2023-08-01T10:46:03;20.20;99.90
29777;DHT22;16677;52.224;7.484;2023-08-01T10:48:31;20.20;1.00
29777;DHT22;16677;52.224;7.484;2023-08-01T10:51:01;20.20;1.00
29777;DHT22;16677;52.224;7.484;2023-08-01T10:53:38;20.30;99.90
29777;DHT22;16677;52.224;7.484;2023-08-01T10:56:15;20.70;99.90
29777;DHT22;16677;52.224;7.484;2023-08-01T10:58:47;20.90;99.90
29777;DHT22;16677;52.224;7.484;2023-08-01T11:01:14;20.70;99.90
29777;DHT22;16677;52.224;7.484;2023-08-01T11:03:41;20.70;99.90
29777;DHT22;16677;52.224;7.484;2023-08-01T11:06:09;20.40;99.90
29777;DHT22;16677;52.224;7.484;2023-08-01T11:08:37;20.10;99.90
29777;DHT22;16677;52.224;7.484;2023-08-01T11:11:08;20.00;99.90
29777;DHT22;16677;52.224;7.484;2023-08-01T11:13:41;20.70;99.90
29777;DHT22;16677;52.224;7.484;2023-08-01T11:16:11;20.50;99.90
29777;DHT22;16677;52.224;7.484;2023-08-01T11:18:43;20.40;99.90
29777;DHT22;16677;52.224;7.484;2023-08-01T11:21:10;20.30;99.90
29777;DHT22;16677;52.224;7.484;2023-08-01T11:23:37;20.10;99.90
29777;DHT22;16677;52.224;7.484;2023-08-01T11:26:08;20.20;99.90
29777;DHT22;16677;52.224;7.484;2023-08-01T11:28:35;19.80;99.90
29777;DHT22;16677;52.224;7.484;2023-08-01T11:31:12;19.70;99.90
29777;DHT22;16677;52.224;7.484;2023-08-01T11:33:40;19.50;99.90
29777;DHT22;16677;52.224;7.484;2023-08-01T11:36:07;19.30;99.90
29777;DHT22;16677;52.224;7.484;2023-08-01T11:38:35;19.20;99.90
29777;DHT22;16677;52.224;7.484;2023-08-01T11:41:03;19.00;99.90
29777;DHT22;16677;52.224;7.484;2023-08-01T11:43:40;18.90;99.90
29777;DHT22;16677;52.224;7.484;2023-08-01T11:46:08;18.70;99.90
29777;DHT22;16677;52.224;7.484;2023-08-01T11:48:35;17.90;99.90
29777;DHT22;16677;52.224;7.484;2023-08-01T11:51:03;16.60;1.00
29777;DHT22;16677;52.224;7.484;2023-08-01T11:53:30;15.90;1.00
29777;DHT22;16677;52.224;7.484;2023-08-01T11:56:05;15.50;99.90
29777;DHT22;16677;52.224;7.484;2023-08-01T11:58:34;15.40;99.90
29777;DHT22;16677;52.224;7.484;2023-08-01T12:01:10;15.40;99.90
29777;DHT22;16677;52.224;7.484;2023-08-01T12:06:14;15.60;99.90
29777;DHT22;16677;52.224;7.484;2023-08-01T12:08:42;15.60;99.90
29777;DHT22;16677;52.224;7.484;2023-08-01T12:11:26;15.30;99.90
29777;DHT22;16677;52.224;7.484;2023-08-01T12:14:00;15.10;99.90
29777;DHT22;16677;52.224;7.484;2023-08-01T12:16:47;15.10;99.90
29777;DHT22;16677;52.224;7.484;2023-08-01T12:19:17;15.30;99.90
29777;DHT22;16677;52.224;7.484;2023-08-01T12:21:48;15.40;99.90
29777;DHT22;16677;52.224;7.484;2023-08-01T12:24:16;15.60;99.90
29777;DHT22;16677;52.224;7.484;2023-08-01T12:26:43;15.90;99.90
29777;DHT22;16677;52.224;7.484;2023-08-01T12:29:10;16.10;99.90
29777;DHT22;16677;52.224;7.484;2023-08-01T12:31:38;16.20;99.90
29777;DHT22;16677;52.224;7.484;2023-08-01T12:34:06;16.50;99.90
29777;DHT22;16677;52.224;7.484;2023-08-01T12:36:33;16.70;99.90
29777;DHT22;16677;52.224;7.484;2023-08-01T12:39:00;16.60;99.90
29777;DHT22;16677;52.224;7.484;2023-08-01T12:41:27;16.50;99.90
29777;DHT22;16677;52.224;7.484;2023-08-01T12:49:04;17.80;99.90
29777;DHT22;16677;52.224;7.484;2023-08-01T12:51:31;18.00;99.90
29777;DHT22;16677;52.224;7.484;2023-08-01T12:53:58;18.50;99.90
29777;DHT22;16677;52.224;7.484;2023-08-01T12:56:26;18.40;1.00
29777;DHT22;16677;52.224;7.484;2023-08-01T12:58:53;18.50;1.00
29777;DHT22;16677;52.224;7.484;2023-08-01T13:01:20;18.60;1.00
29777;DHT22;16677;52.224;7.484;2023-08-01T13:03:47;18.80;99.90
29777;DHT22;16677;52.224;7.484;2023-08-01T13:06:14;19.10;1.00
29777;DHT22;16677;52.224;7.484;2023-08-01T13:08:42;18.70;1.00
29777;DHT22;16677;52.224;7.484;2023-08-01T13:11:10;18.60;99.90
29777;DHT22;16677;52.224;7.484;2023-08-01T13:13:40;18.10;99.90
29777;DHT22;16677;52.224;7.484;2023-08-01T13:16:08;18.20;99.90
29777;DHT22;16677;52.224;7.484;2023-08-01T13:18:36;18.10;1.00
29777;DHT22;16677;52.224;7.484;2023-08-01T13:21:10;18.30;99.90
29777;DHT22;16677;52.224;7.484;2023-08-01T13:23:38;18.30;99.90
29777;DHT22;16677;52.224;7.484;2023-08-01T13:26:05;18.30;95.90
29777;DHT22;16677;52.224;7.484;2023-08-01T13:28:33;18.20;1.00
29777;DHT22;16677;52.224;7.484;2023-08-01T13:31:00;18.60;1.00
29777;DHT22;16677;52.224;7.484;2023-08-01T13:33:27;19.00;99.90
29777;DHT22;16677;52.224;7.484;2023-08-01T13:35:55;18.90;1.00
29777;DHT22;16677;52.224;7.484;2023-08-01T13:38:24;19.10;1.00
29777;DHT22;16677;52.224;7.484;2023-08-01T13:40:51;19.50;3.00
29777;DHT22;16677;52.224;7.484;2023-08-01T13:43:19;19.30;1.00
29777;DHT22;16677;52.224;7.484;2023-08-01T13:45:46;19.40;99.90
29777;DHT22;16677;52.224;7.484;2023-08-01T13:48:13;19.60;99.90
29777;DHT22;16677;52.224;7.484;2023-08-01T13:50:41;19.40;1.00
29777;DHT22;16677;52.224;7.484;2023-08-01T13:53:08;19.10;99.90
29777;DHT22;16677;52.224;7.484;2023-08-01T13:55:38;19.20;1.00
29777;DHT22;16677;52.224;7.484;2023-08-01T13:58:06;19.00;99.90
29777;DHT22;16677;52.224;7.484;2023-08-01T14:00:33;19.00;51.00
29777;DHT22;16677;52.224;7.484;2023-08-01T14:03:00;19.00;99.90
29777;DHT22;16677;52.224;7.484;2023-08-01T14:05:28;18.90;99.90
29777;DHT22;16677;52.224;7.484;2023-08-01T14:07:55;18.80;99.90
29777;DHT22;16677;52.224;7.484;2023-08-01T14:10:23;18.90;1.00
29777;DHT22;16677;52.224;7.484;2023-08-01T14:12:50;19.00;99.90
29777;DHT22;16677;52.224;7.484;2023-08-01T14:15:18;18.70;99.90
29777;DHT22;16677;52.224;7.484;2023-08-01T14:17:45;18.80;1.00
29777;DHT22;16677;52.224;7.484;2023-08-01T14:20:12;18.80;1.00
29777;DHT22;16677;52.224;7.484;2023-08-01T14:22:43;18.60;99.90
29777;DHT22;16677;52.224;7.484;2023-08-01T14:25:13;18.50;99.90
29777;DHT22;16677;52.224;7.484;2023-08-01T14:27:40;18.40;1.00
29777;DHT22;16677;52.224;7.484;2023-08-01T14:30:07;18.40;1.00
29777;DHT22;16677;52.224;7.484;2023-08-01T14:32:36;18.40;1.00
29777;DHT22;16677;52.224;7.484;2023-08-01T14:35:04;18.50;1.00
29777;DHT22;16677;52.224;7.484;2023-08-01T14:37:31;18.80;1.00
29777;DHT22;16677;52.224;7.484;2023-08-01T14:39:59;18.90;99.90
29777;DHT22;16677;52.224;7.484;2023-08-01T14:42:26;19.20;1.00
29777;DHT22;16677;52.224;7.484;2023-08-01T14:44:54;19.10;1.00
29777;DHT22;16677;52.224;7.484;2023-08-01T14:47:21;19.50;1.00
29777;DHT22;16677;52.224;7.484;2023-08-01T14:49:49;19.70;99.90
29777;DHT22;16677;52.224;7.484;2023-08-01T14:52:16;19.50;1.00
29777;DHT22;16677;52.224;7.484;2023-08-01T14:54:45;19.50;93.30
29777;DHT22;16677;52.224;7.484;2023-08-01T14:57:12;19.40;99.90
29777;DHT22;16677;52.224;7.484;2023-08-01T14:59:40;19.50;1.00
29777;DHT22;16677;52.224;7.484;2023-08-01T15:02:07;19.40;1.00
29777;DHT22;16677;52.224;7.484;2023-08-01T15:04:37;19.40;1.00
29777;DHT22;16677;52.224;7.484;2023-08-01T15:07:04;19.40;1.00
29777;DHT22;16677;52.224;7.484;2023-08-01T15:09:32;19.60;1.00
29777;DHT22;16677;52.224;7.484;2023-08-01T15:12:00;19.90;1.00
29777;DHT22;16677;52.224;7.484;2023-08-01T15:14:28;20.10;1.00
29777;DHT22;16677;52.224;7.484;2023-08-01T15:16:55;20.30;99.90
29777;DHT22;16677;52.224;7.484;2023-08-01T15:19:22;20.00;99.90
29777;DHT22;16677;52.224;7.484;2023-08-01T15:21:50;20.30;99.90
29777;DHT22;16677;52.224;7.484;2023-08-01T15:24:17;20.30;99.90
29777;DHT22;16677;52.224;7.484;2023-08-01T15:26:44;20.30;99.90
29777;DHT22;16677;52.224;7.484;2023-08-01T15:29:12;20.40;1.00
29777;DHT22;16677;52.224;7.484;2023-08-01T15:31:40;20.60;1.00
29777;DHT22;16677;52.224;7.484;2023-08-01T15:34:07;20.50;1.00
29777;DHT22;16677;52.224;7.484;2023-08-01T15:36:35;20.00;98.50
29777;DHT22;16677;52.224;7.484;2023-08-01T15:39:03;19.80;99.90
29777;DHT22;16677;52.224;7.484;2023-08-01T15:41:30;19.80;99.90
29777;DHT22;16677;52.224;7.484;2023-08-01T15:43:57;19.70;99.90
29777;DHT22;16677;52.224;7.484;2023-08-01T15:46:25;20.00;99.90
29777;DHT22;16677;52.224;7.484;2023-08-01T15:48:52;20.00;99.90